Time;durP1;ratioP1;P1;durP2;ratioP2;P2;SDS_P1;SDS_P2;PMS_P1;PMS_P2;Temp;Humidity;BMP_temperature;BMP_pressure;BME280_temperature;BME280_humidity;BME280_pressure;Samples;Min_cycle;Max_cycle;Signal;HPM_P1;HPM_P2
2022/04/10 00:01:07;;;;;;;1317.00;999.90;;;;;;;1.42;100.00;100410.00;5048942;28;20052;-80
2022/04/10 00:03:40;;;;;;;1318.18;999.90;;;;;;;1.41;100.00;100405.72;5048944;28;20051;-81
2022/04/10 00:06:13;;;;;;;1322.10;999.90;;;;;;;1.41;100.00;100412.94;5052036;28;20049;-80
2022/04/10 00:08:41;;;;;;;1324.15;999.90;;;;;;;1.39;100.00;100407.78;5056419;28;20041;-80
2022/04/10 00:11:16;;;;;;;1325.10;999.90;;;;;;;1.38;100.00;100411.50;5035072;28;20057;-80
2022/04/10 00:13:49;;;;;;;1328.95;999.90;;;;;;;1.27;100.00;100405.06;5047030;28;20049;-80
2022/04/10 00:16:22;;;;;;;1334.97;999.90;;;;;;;1.41;100.00;100418.28;5049352;28;20577;-82
2022/04/10 00:18:51;;;;;;;1335.32;999.90;;;;;;;1.38;100.00;100414.19;5053115;28;20051;-82
2022/04/10 00:21:19;;;;;;;1340.28;999.90;;;;;;;1.51;100.00;100423.94;5053106;28;20622;-82
2022/04/10 00:23:47;;;;;;;1346.05;999.90;;;;;;;1.47;100.00;100425.44;5044490;28;20049;-82
2022/04/10 00:26:25;;;;;;;1349.28;999.90;;;;;;;1.60;100.00;100432.50;5053914;28;20083;-82
2022/04/10 00:28:58;;;;;;;;;;;;;;;1.55;100.00;100413.56;5085259;28;20048;-80
2022/04/10 00:31:32;;;;;;;1354.05;999.90;;;;;;;1.40;100.00;100414.81;5063368;28;19920;-81
2022/04/10 00:34:05;;;;;;;1355.93;999.90;;;;;;;1.36;100.00;100417.09;5046305;28;20545;-83
2022/04/10 00:36:38;;;;;;;1362.28;999.90;;;;;;;1.35;100.00;100420.00;5064803;28;20044;-82
2022/04/10 00:39:11;;;;;;;1360.75;999.90;;;;;;;1.26;100.00;100424.88;5046702;28;20063;-82
2022/04/10 00:41:46;;;;;;;1370.35;999.90;;;;;;;1.25;100.00;100422.41;5053309;28;20045;-82
2022/04/10 00:44:20;;;;;;;1371.20;999.90;;;;;;;1.18;100.00;100422.47;5050844;28;20057;-82
2022/04/10 00:46:53;;;;;;;1373.78;999.90;;;;;;;1.20;100.00;100425.75;5043862;28;20360;-82
2022/04/10 00:49:26;;;;;;;1376.55;999.90;;;;;;;1.13;100.00;100420.50;5052732;28;20055;-82
2022/04/10 00:52:00;;;;;;;1382.07;999.90;;;;;;;1.20;100.00;100417.72;5050371;28;20060;-82
2022/04/10 00:54:34;;;;;;;1383.68;999.90;;;;;;;1.25;100.00;100422.41;5053420;28;20414;-82
2022/04/10 00:57:11;;;;;;;1389.07;999.90;;;;;;;1.16;100.00;100409.31;5050556;28;20045;-82
2022/04/10 00:59:44;;;;;;;1393.13;999.90;;;;;;;1.16;100.00;100419.19;5037051;28;20400;-82
2022/04/10 01:02:17;;;;;;;1393.35;999.90;;;;;;;1.14;100.00;100426.66;5055714;28;20052;-82
2022/04/10 01:04:51;;;;;;;1392.43;999.90;;;;;;;1.16;100.00;100419.19;5040595;28;20486;-81
2022/04/10 01:07:24;;;;;;;1397.72;999.90;;;;;;;1.12;100.00;100415.31;5061860;28;20051;-81
2022/04/10 01:09:57;;;;;;;1410.82;999.90;;;;;;;1.20;100.00;100431.09;5052042;28;20045;-81
2022/04/10 01:12:33;;;;;;;1420.05;999.90;;;;;;;1.18;100.00;100427.84;5081049;28;20493;-82
2022/04/10 01:15:18;;;;;;;1427.85;999.90;;;;;;;1.16;100.00;100427.25;5042838;28;20056;-82
2022/04/10 01:17:51;;;;;;;1427.35;999.90;;;;;;;1.15;100.00;100436.34;5046630;28;20053;-81
2022/04/10 01:20:25;;;;;;;1435.55;999.90;;;;;;;1.17;100.00;100426.19;5044043;28;20522;-82
2022/04/10 01:23:04;;;;;;;1437.20;999.90;;;;;;;1.14;100.00;100445.41;5045037;28;20485;-82
2022/04/10 01:25:33;;;;;;;1442.40;999.90;;;;;;;1.18;100.00;100439.38;5082051;28;20045;-81
2022/04/10 01:28:11;;;;;;;1446.57;999.90;;;;;;;1.22;100.00;100441.63;5043720;28;20928;-82
2022/04/10 01:30:44;;;;;;;1454.05;999.90;;;;;;;1.18;100.00;100441.25;5049698;28;20068;-81
2022/04/10 01:33:17;;;;;;;1455.07;999.90;;;;;;;1.18;100.00;100431.34;5052973;28;20382;-83
2022/04/10 01:35:51;;;;;;;1461.93;999.90;;;;;;;1.12;100.00;100434.91;5058513;28;20044;-81
2022/04/10 01:38:25;;;;;;;1458.85;999.90;;;;;;;1.04;100.00;100432.53;5043770;28;20060;-81
2022/04/10 01:40:58;;;;;;;1466.07;999.90;;;;;;;1.12;100.00;100451.00;5048262;28;20040;-82
2022/04/10 01:43:31;;;;;;;1468.13;999.90;;;;;;;0.99;100.00;100446.59;5051713;28;20044;-81
2022/04/10 01:46:05;;;;;;;1471.82;999.90;;;;;;;1.08;100.00;100457.84;5045960;28;20044;-80
2022/04/10 01:48:38;;;;;;;1479.57;999.90;;;;;;;1.06;100.00;100459.91;5040572;28;20045;-81
2022/04/10 01:51:12;;;;;;;1480.85;999.90;;;;;;;1.05;100.00;100460.97;5042790;28;20060;-81
2022/04/10 01:53:46;;;;;;;1485.70;999.90;;;;;;;1.01;100.00;100467.81;5056000;28;20079;-82
2022/04/10 01:56:20;;;;;;;1487.88;999.90;;;;;;;0.94;100.00;100469.72;5056928;28;20063;-81
2022/04/10 01:58:53;;;;;;;1483.13;999.90;;;;;;;0.93;100.00;100466.25;5079581;28;20056;-81
2022/04/10 02:01:27;;;;;;;1493.32;999.90;;;;;;;0.91;100.00;100462.97;5036734;28;20723;-80
2022/04/10 02:04:00;;;;;;;1497.18;999.90;;;;;;;0.96;100.00;100465.78;5050081;28;20041;-81
2022/04/10 02:06:35;;;;;;;1502.57;999.90;;;;;;;1.02;100.00;100480.16;5050940;28;20055;-81
2022/04/10 02:09:07;;;;;;;1513.95;999.90;;;;;;;1.11;100.00;100481.53;5045422;28;20048;-81
2022/04/10 02:11:41;;;;;;;1518.13;999.90;;;;;;;1.17;100.00;100477.97;5036978;28;20056;-81
2022/04/10 02:14:15;;;;;;;1524.43;999.90;;;;;;;1.11;100.00;100464.63;5046683;28;20469;-80
2022/04/10 02:16:48;;;;;;;1528.07;999.90;;;;;;;0.99;100.00;100465.34;5042863;28;20049;-82
2022/04/10 02:19:22;;;;;;;1526.65;999.90;;;;;;;1.00;100.00;100467.00;5065167;28;20048;-82
2022/04/10 02:21:57;;;;;;;1524.43;999.90;;;;;;;0.95;100.00;100466.84;5038273;28;20599;-81
2022/04/10 02:24:26;;;;;;;1526.53;999.90;;;;;;;0.91;100.00;100462.97;5047576;28;20052;-81
2022/04/10 02:26:59;;;;;;;1527.90;999.90;;;;;;;0.87;100.00;100469.81;5049938;28;20048;-81
2022/04/10 02:29:33;;;;;;;1526.65;999.90;;;;;;;0.86;100.00;100476.22;5047980;28;20490;-81
2022/04/10 02:32:07;;;;;;;1527.60;999.90;;;;;;;0.83;100.00;100476.66;5051241;28;20406;-81
2022/04/10 02:34:37;;;;;;;1532.20;999.90;;;;;;;0.79;100.00;100473.59;5061923;28;20053;-82
2022/04/10 02:37:10;;;;;;;1531.57;999.90;;;;;;;0.72;100.00;100477.34;5051370;28;20049;-81
2022/04/10 02:39:45;;;;;;;1528.07;999.90;;;;;;;0.71;100.00;100479.22;5049898;28;20041;-82
2022/04/10 02:42:18;;;;;;;1526.85;999.90;;;;;;;0.73;100.00;100487.03;5049351;28;20050;-82
2022/04/10 02:44:51;;;;;;;1522.78;999.90;;;;;;;0.72;100.00;100486.22;5051068;28;20037;-82
2022/04/10 02:47:20;;;;;;;1532.25;999.90;;;;;;;0.79;100.00;100486.97;5039239;28;20053;-82
2022/04/10 02:49:53;;;;;;;1532.60;999.90;;;;;;;0.90;100.00;100487.28;5042088;28;20520;-81
2022/04/10 02:52:22;;;;;;;1530.43;999.90;;;;;;;0.84;100.00;100489.00;5048760;28;20057;-82
2022/04/10 02:54:52;;;;;;;1531.85;999.90;;;;;;;0.77;100.00;100475.66;5050381;28;20049;-82
2022/04/10 02:57:25;;;;;;;1532.50;999.90;;;;;;;0.75;100.00;100480.41;5048802;28;20046;-80
2022/04/10 02:59:58;;;;;;;1531.03;999.90;;;;;;;0.80;100.00;100485.94;5044110;28;20049;-82
2022/04/10 03:02:32;;;;;;;1528.55;999.90;;;;;;;0.72;100.00;100488.91;5044903;28;20394;-81
2022/04/10 03:05:06;;;;;;;1519.63;999.90;;;;;;;0.71;100.00;100492.63;5054120;28;20063;-81
2022/04/10 03:07:41;;;;;;;1518.03;999.90;;;;;;;0.65;100.00;100485.47;5038336;28;20045;-80
2022/04/10 03:10:17;;;;;;;1519.95;999.90;;;;;;;0.62;100.00;100478.69;5050799;28;20049;-81
2022/04/10 03:12:50;;;;;;;1520.88;999.90;;;;;;;0.66;100.00;100497.78;5048634;28;20048;-81
2022/04/10 03:15:18;;;;;;;1523.15;999.90;;;;;;;0.69;100.00;100502.72;5046609;28;20389;-81
2022/04/10 03:17:51;;;;;;;1526.40;999.90;;;;;;;0.75;100.00;100504.53;5052834;28;20044;-81
2022/04/10 03:20:20;;;;;;;1528.53;999.90;;;;;;;0.76;100.00;100503.50;5051791;28;20052;-82
2022/04/10 03:22:53;;;;;;;1531.93;999.90;;;;;;;0.82;100.00;100509.84;5044202;28;20052;-82
2022/04/10 03:25:28;;;;;;;1533.95;999.90;;;;;;;0.88;100.00;100514.31;5046098;28;20723;-80
2022/04/10 03:28:01;;;;;;;1541.25;999.90;;;;;;;0.87;100.00;100503.81;5050640;28;20424;-82
2022/04/10 03:30:34;;;;;;;1535.20;999.90;;;;;;;0.86;100.00;100511.03;5038011;28;20049;-81
2022/04/10 03:33:02;;;;;;;1538.05;999.90;;;;;;;0.95;100.00;100519.59;5079074;28;20057;-82
2022/04/10 03:35:36;;;;;;;1538.10;999.90;;;;;;;0.88;100.00;100510.81;5057821;28;20052;-82
2022/04/10 03:38:11;;;;;;;1540.60;999.90;;;;;;;0.79;100.00;100512.97;5041844;28;20056;-82
2022/04/10 03:40:41;;;;;;;1548.10;999.90;;;;;;;0.75;100.00;100525.16;5039007;28;20048;-82
2022/04/10 03:43:14;;;;;;;1548.80;999.90;;;;;;;0.67;100.00;100521.69;5040873;28;20056;-82
2022/04/10 03:45:48;;;;;;;1559.00;999.90;;;;;;;0.70;100.00;100515.06;5053429;28;20055;-82
2022/04/10 03:48:21;;;;;;;1564.35;999.90;;;;;;;0.70;100.00;100515.06;5042522;28;20057;-81
2022/04/10 03:50:49;;;;;;;1568.20;999.90;;;;;;;0.64;100.00;100521.31;5049540;28;20505;-82
2022/04/10 03:53:18;;;;;;;1574.95;999.90;;;;;;;0.59;100.00;100529.16;5077036;28;20049;-79
2022/04/10 03:55:53;;;;;;;1575.03;999.90;;;;;;;0.54;100.00;100535.19;5081290;28;20072;-81
2022/04/10 03:58:27;;;;;;;1581.68;999.90;;;;;;;0.47;100.00;100539.75;5048858;28;20049;-81
2022/04/10 04:01:02;;;;;;;1580.63;999.90;;;;;;;0.38;100.00;100541.06;5043768;28;20166;-81
2022/04/10 04:03:35;;;;;;;1587.85;999.90;;;;;;;0.38;100.00;100538.38;5040043;28;20050;-82
2022/04/10 04:06:10;;;;;;;1591.78;999.90;;;;;;;0.39;100.00;100546.19;5055536;28;20049;-81
2022/04/10 04:08:40;;;;;;;1599.38;999.90;;;;;;;0.47;100.00;100555.81;5052104;28;20045;-81
2022/04/10 04:11:15;;;;;;;1604.25;999.90;;;;;;;0.43;100.00;100555.44;5059789;28;20421;-82
2022/04/10 04:13:48;;;;;;;1610.95;999.90;;;;;;;0.57;100.00;100556.16;5043542;28;20053;-80
2022/04/10 04:16:16;;;;;;;1616.00;999.90;;;;;;;0.49;100.00;100537.69;5052289;28;20386;-81
2022/04/10 04:18:51;;;;;;;1619.43;999.90;;;;;;;0.57;100.00;100563.41;5043569;28;20045;-81
2022/04/10 04:21:24;;;;;;;1617.97;999.90;;;;;;;0.54;100.00;100566.47;5052259;28;20052;-81
2022/04/10 04:23:57;;;;;;;1623.75;999.90;;;;;;;0.52;100.00;100572.06;5049913;28;20762;-83
2022/04/10 04:26:32;;;;;;;1628.53;999.90;;;;;;;0.52;100.00;100573.94;5052027;28;20770;-81
2022/04/10 04:29:07;;;;;;;1634.85;999.90;;;;;;;0.53;100.00;100580.94;5044876;28;20046;-81
2022/04/10 04:31:35;;;;;;;1641.03;999.90;;;;;;;0.62;100.00;100593.00;5046973;28;20056;-82
2022/04/10 04:34:03;;;;;;;1649.78;999.90;;;;;;;0.57;100.00;100598.22;5046252;28;20053;-82
2022/04/10 04:36:36;;;;;;;1655.30;999.90;;;;;;;0.59;100.00;100602.28;5056933;28;20059;-80
2022/04/10 04:39:05;;;;;;;1664.07;999.90;;;;;;;0.64;100.00;100613.19;5055776;28;20041;-82
2022/04/10 04:41:39;;;;;;;1669.22;999.90;;;;;;;0.64;100.00;100607.81;5046405;28;20052;-81
2022/04/10 04:44:08;;;;;;;1678.32;999.90;;;;;;;0.67;100.00;100609.25;5043567;28;20046;-80
2022/04/10 04:46:41;;;;;;;1682.93;999.90;;;;;;;0.62;100.00;100609.91;5042948;28;20052;-81
2022/04/10 04:49:14;;;;;;;1688.72;999.90;;;;;;;0.66;100.00;100612.97;5055354;28;20063;-81
2022/04/10 04:51:48;;;;;;;1684.03;999.90;;;;;;;0.71;100.00;100617.69;5050999;28;20053;-81
2022/04/10 04:54:21;;;;;;;1687.82;999.90;;;;;;;0.64;100.00;100610.50;5049140;28;20052;-81
2022/04/10 04:56:56;;;;;;;1691.18;999.90;;;;;;;0.76;100.00;100612.50;5038106;28;20469;-82
2022/04/10 04:59:36;;;;;;;1690.13;999.90;;;;;;;0.63;100.00;100616.88;5043669;28;20040;-81
2022/04/10 05:02:09;;;;;;;1690.78;999.90;;;;;;;0.65;100.00;100612.16;5043253;28;20048;-81
2022/04/10 05:04:43;;;;;;;1695.40;999.90;;;;;;;0.60;100.00;100624.56;5082780;28;20398;-79
2022/04/10 05:07:16;;;;;;;1700.65;999.90;;;;;;;0.53;100.00;100613.88;5060001;28;20049;-80
2022/04/10 05:09:45;;;;;;;1701.05;999.90;;;;;;;0.64;100.00;100615.88;5049800;28;20045;-80
2022/04/10 05:12:16;;;;;;;1700.00;999.90;;;;;;;0.58;100.00;100623.94;5049901;28;20053;-79
2022/04/10 05:14:50;;;;;;;1702.63;999.90;;;;;;;0.65;100.00;100624.75;5053582;28;20695;-81
2022/04/10 05:17:26;;;;;;;1697.25;999.90;;;;;;;0.69;100.00;100636.63;5049243;28;20116;-80
2022/04/10 05:20:00;;;;;;;1696.60;999.90;;;;;;;0.74;100.00;100644.03;5077334;28;20413;-81
2022/04/10 05:22:37;;;;;;;1695.38;999.90;;;;;;;0.82;100.00;100646.47;5037245;28;20052;-82
2022/04/10 05:25:11;;;;;;;1693.18;999.90;;;;;;;0.84;100.00;100644.38;5043544;28;20413;-81
2022/04/10 05:27:48;;;;;;;1690.45;999.90;;;;;;;0.81;100.00;100644.81;5044784;28;20056;-80
2022/04/10 05:30:16;;;;;;;1693.15;999.90;;;;;;;0.90;100.00;100656.94;5043879;28;20564;-81
2022/04/10 05:32:52;;;;;;;1698.65;999.90;;;;;;;0.95;100.00;100658.94;5045029;28;20047;-81
2022/04/10 05:35:25;;;;;;;1705.15;999.90;;;;;;;0.92;100.00;100660.19;5046657;28;20060;-81
2022/04/10 05:37:53;;;;;;;1710.38;999.90;;;;;;;0.99;100.00;100665.50;5050688;28;20670;-81
2022/04/10 05:40:26;;;;;;;1715.53;999.90;;;;;;;0.98;100.00;100661.19;5052514;28;20045;-82
2022/04/10 05:43:01;;;;;;;1725.40;999.90;;;;;;;1.00;100.00;100670.66;5039166;28;20064;-81
2022/04/10 05:45:35;;;;;;;1746.25;999.90;;;;;;;1.17;100.00;100679.00;5076650;28;20040;-80
2022/04/10 05:48:09;;;;;;;1747.18;999.90;;;;;;;1.32;100.00;100675.97;5044691;28;20485;-83
2022/04/10 05:50:42;;;;;;;1759.25;999.90;;;;;;;1.40;100.00;100668.72;5073497;28;20045;-83
2022/04/10 05:53:16;;;;;;;1763.13;999.90;;;;;;;1.47;100.00;100680.22;5041525;28;20050;-82
2022/04/10 05:55:49;;;;;;;1780.15;999.90;;;;;;;1.55;100.00;100673.75;5051955;28;20048;-81
2022/04/10 05:58:28;;;;;;;1782.35;999.90;;;;;;;1.63;100.00;100676.13;5058427;28;20049;-82
2022/04/10 06:01:02;;;;;;;1788.90;999.90;;;;;;;1.49;100.00;100683.50;5041670;28;20421;-81
2022/04/10 06:03:35;;;;;;;1798.30;999.90;;;;;;;1.57;100.00;100669.81;5075028;28;20049;-83
2022/04/10 06:06:06;;;;;;;1814.25;999.90;;;;;;;1.82;100.00;100680.53;5050541;28;20536;-83
2022/04/10 06:08:40;;;;;;;1830.00;999.90;;;;;;;2.01;100.00;100680.53;5046352;28;20046;-82
2022/04/10 06:11:14;;;;;;;1842.53;999.90;;;;;;;2.27;100.00;100674.03;5051094;28;20041;-81
2022/04/10 06:13:48;;;;;;;1834.00;999.90;;;;;;;2.14;100.00;100682.25;5046431;28;20397;-81
2022/04/10 06:16:26;;;;;;;1846.32;999.90;;;;;;;2.12;100.00;100687.84;5043355;28;20052;-81
2022/04/10 06:18:56;;;;;;;1874.10;999.90;;;;;;;2.33;100.00;100691.94;5073572;28;20049;-82
2022/04/10 06:21:30;;;;;;;1907.05;999.90;;;;;;;2.53;100.00;100696.25;5051414;28;20033;-81
2022/04/10 06:23:58;;;;;;;1934.22;999.90;;;;;;;2.79;100.00;100700.47;5051989;28;20057;-82
2022/04/10 06:26:37;;;;;;;1946.85;999.90;;;;;;;2.57;100.00;100710.03;5066622;28;20651;-82
2022/04/10 06:29:06;;;;;;;1973.75;999.90;;;;;;;2.48;100.00;100710.34;5042456;28;20072;-83
2022/04/10 06:31:47;;;;;;;1999.90;999.90;;;;;;;2.49;100.00;100720.06;5057497;28;20050;-82
2022/04/10 06:34:23;;;;;;;1999.90;999.90;;;;;;;2.55;100.00;100729.06;5046094;28;20049;-81
2022/04/10 06:36:56;;;;;;;1999.90;999.90;;;;;;;2.40;100.00;100728.66;5045315;28;20048;-83
2022/04/10 06:39:30;;;;;;;1999.90;999.90;;;;;;;2.31;100.00;100736.19;5052551;28;20048;-83
2022/04/10 06:42:06;;;;;;;1999.90;999.90;;;;;;;2.14;100.00;100728.72;5045219;28;20060;-83
2022/04/10 06:45:01;;;;;;;1999.90;999.90;;;;;;;2.20;100.00;100740.44;5041084;28;20413;-83
2022/04/10 06:47:54;;;;;;;1999.90;999.90;;;;;;;2.33;100.00;100740.25;5050548;28;20397;-83
2022/04/10 06:50:24;;;;;;;1999.90;999.90;;;;;;;2.38;100.00;100736.94;5043555;28;20045;-82
2022/04/10 06:52:59;;;;;;;1999.90;999.90;;;;;;;2.52;100.00;100749.16;5083350;28;20049;-81
2022/04/10 06:55:33;;;;;;;1999.90;999.90;;;;;;;2.64;100.00;100751.91;5056814;28;20049;-81
2022/04/10 06:58:06;;;;;;;1999.90;999.90;;;;;;;2.58;100.00;100754.69;5055433;28;20059;-82
2022/04/10 07:00:42;;;;;;;1999.90;999.90;;;;;;;2.60;100.00;100758.78;5042527;28;20052;-81
2022/04/10 07:03:15;;;;;;;1999.90;999.90;;;;;;;2.69;100.00;100753.91;5038687;28;20050;-79
2022/04/10 07:05:49;;;;;;;1999.90;999.90;;;;;;;2.79;100.00;100748.84;5042349;28;20386;-80
2022/04/10 07:08:27;;;;;;;1999.90;999.90;;;;;;;2.84;100.00;100753.53;5039048;28;20056;-79
2022/04/10 07:11:01;;;;;;;1999.90;999.90;;;;;;;2.96;100.00;100761.66;5039685;28;20482;-82
2022/04/10 07:13:35;;;;;;;1999.90;999.90;;;;;;;3.12;100.00;100758.34;5041022;28;20037;-80
2022/04/10 07:16:06;;;;;;;1999.90;999.90;;;;;;;3.27;100.00;100762.47;5041406;28;20381;-82
2022/04/10 07:18:40;;;;;;;1999.90;999.90;;;;;;;3.32;100.00;100752.66;5041581;28;20060;-78
2022/04/10 07:23:41;;;;;;;1999.90;999.90;;;;;;;3.32;100.00;100763.44;5041386;28;20040;-79
2022/04/10 07:24:06;;;;;;;1999.90;999.90;;;;;;;3.57;100.00;100759.75;5040624;28;20040;-79
2022/04/10 07:26:40;;;;;;;1999.90;999.90;;;;;;;3.71;100.00;100763.84;5042063;28;20056;-79
2022/04/10 07:29:16;;;;;;;1999.90;999.90;;;;;;;3.66;100.00;100777.19;5038038;28;20045;-79
2022/04/10 07:31:47;;;;;;;1999.90;999.90;;;;;;;3.71;100.00;100784.56;5069384;28;20044;-78
2022/04/10 07:34:15;;;;;;;1999.90;999.90;;;;;;;3.78;100.00;100789.84;5043588;28;20051;-79
2022/04/10 07:37:07;;;;;;;1999.90;999.90;;;;;;;3.76;100.00;100790.09;5044743;28;20045;-79
2022/04/10 07:39:47;;;;;;;1999.90;999.90;;;;;;;4.00;100.00;100780.16;5046083;28;20052;-79
2022/04/10 07:42:22;;;;;;;1999.90;999.90;;;;;;;3.97;100.00;100785.19;5043178;28;20045;-81
2022/04/10 07:44:54;;;;;;;1999.90;999.90;;;;;;;3.91;100.00;100795.84;5078371;28;20068;-81
2022/04/10 07:47:47;;;;;;;1999.90;999.90;;;;;;;3.95;100.00;100782.75;5040681;28;20056;-81
2022/04/10 07:50:15;;;;;;;1999.90;999.90;;;;;;;4.00;100.00;100790.91;5043158;28;20060;-80
2022/04/10 07:52:43;;;;;;;1985.40;999.90;;;;;;;4.28;100.00;100791.28;5050977;28;20417;-79
2022/04/10 07:55:25;;;;;;;1898.13;999.90;;;;;;;4.11;100.00;100786.59;5042827;28;20049;-78
2022/04/10 07:58:01;;;;;;;1850.88;999.90;;;;;;;4.12;100.00;100793.63;5048585;28;20053;-79
2022/04/10 08:00:32;;;;;;;1774.72;999.90;;;;;;;4.14;100.00;100788.81;5049929;28;20056;-79
2022/04/10 08:03:10;;;;;;;1749.20;999.90;;;;;;;4.17;100.00;100801.00;5047918;28;20486;-80
2022/04/10 08:06:05;;;;;;;;;;;;;;;4.37;100.00;100792.56;5023864;28;20493;-78
2022/04/10 08:08:41;;;;;;;1704.32;999.90;;;;;;;4.57;100.00;100786.78;5046626;28;20281;-80
2022/04/10 08:11:09;;;;;;;1741.05;999.90;;;;;;;5.00;100.00;100804.41;5046291;28;20064;-78
2022/04/10 08:13:43;;;;;;;1688.47;999.90;;;;;;;4.73;100.00;100796.03;5033357;28;20056;-79
2022/04/10 08:16:16;;;;;;;1588.05;999.90;;;;;;;4.54;100.00;100806.97;5036861;28;20053;-78
2022/04/10 08:18:52;;;;;;;1457.18;999.90;;;;;;;4.32;100.00;100803.22;5032009;28;20049;-78
2022/04/10 08:21:25;;;;;;;1399.38;999.90;;;;;;;4.47;100.00;100814.34;5024239;28;20045;-79
2022/04/10 08:23:59;;;;;;;1398.35;999.90;;;;;;;4.72;100.00;100827.56;5032112;28;20044;-78
2022/04/10 08:26:34;;;;;;;1428.07;999.90;;;;;;;4.68;100.00;100820.19;5030728;28;20060;-78
2022/04/10 08:29:07;;;;;;;1376.53;999.90;;;;;;;4.69;100.00;100825.34;5028818;28;20056;-78
2022/04/10 08:31:40;;;;;;;1340.03;999.90;;;;;;;4.47;100.00;100819.75;5028280;28;20061;-80
2022/04/10 08:34:15;;;;;;;1314.50;999.90;;;;;;;4.56;100.00;100822.91;5026166;28;20045;-79
2022/04/10 08:36:48;;;;;;;1277.53;999.90;;;;;;;4.34;100.00;100825.38;5023444;28;20048;-81
2022/04/10 08:39:16;;;;;;;1275.63;999.90;;;;;;;4.32;100.00;100836.38;5028972;28;20061;-80
2022/04/10 08:41:46;;;;;;;1254.75;999.90;;;;;;;4.12;100.00;100833.22;5032755;28;20607;-79
2022/04/10 08:44:17;;;;;;;1248.25;999.90;;;;;;;4.13;100.00;100830.28;5032398;28;20052;-80
2022/04/10 08:46:51;;;;;;;1242.32;999.90;;;;;;;4.16;100.00;100834.41;5029246;28;20053;-79
2022/04/10 08:49:22;;;;;;;1246.30;999.90;;;;;;;4.11;100.00;100851.25;5057947;28;20060;-80
2022/04/10 08:51:57;;;;;;;1227.60;999.90;;;;;;;3.99;100.00;100872.78;5031062;28;20397;-81
2022/04/10 08:54:31;;;;;;;1213.82;999.90;;;;;;;3.51;100.00;100873.69;5028153;28;20055;-79
2022/04/10 08:57:04;;;;;;;1226.55;999.90;;;;;;;3.26;100.00;100898.00;5024765;28;20055;-80
2022/04/10 08:59:32;;;;;;;1208.18;999.90;;;;;;;2.82;100.00;100896.22;5023502;28;20052;-81
2022/04/10 09:02:06;;;;;;;1244.65;999.90;;;;;;;2.76;100.00;100872.91;5022192;28;20061;-80
2022/04/10 09:04:41;;;;;;;1280.40;999.90;;;;;;;2.81;100.00;100856.94;5025923;28;20056;-81
2022/04/10 09:07:14;;;;;;;1310.53;999.90;;;;;;;2.81;100.00;100856.13;5023871;28;20057;-82
2022/04/10 09:09:54;;;;;;;1337.30;999.90;;;;;;;2.96;100.00;100856.56;5022638;28;20049;-82
2022/04/10 09:12:27;;;;;;;1365.88;999.90;;;;;;;3.18;100.00;100848.84;5023634;28;20037;-83
2022/04/10 09:15:04;;;;;;;1405.68;999.90;;;;;;;3.19;100.00;100846.97;5024068;28;20067;-79
2022/04/10 09:17:32;;;;;;;1477.90;999.90;;;;;;;3.30;100.00;100845.41;5024995;28;20049;-81
2022/04/10 09:20:07;;;;;;;1527.97;999.90;;;;;;;3.40;100.00;100833.03;5032920;28;21326;-79
2022/04/10 09:22:38;;;;;;;1605.10;999.90;;;;;;;4.02;100.00;100837.31;5036802;28;20068;-81
2022/04/10 09:25:09;;;;;;;1665.00;999.90;;;;;;;4.07;100.00;100837.44;5030292;28;20061;-82
2022/04/10 09:27:44;;;;;;;1730.63;999.90;;;;;;;4.14;100.00;100841.88;5025105;28;20048;-79
2022/04/10 09:30:19;;;;;;;1760.03;999.90;;;;;;;4.23;100.00;100840.50;5025635;28;20065;-82
2022/04/10 09:32:56;;;;;;;1784.88;999.90;;;;;;;4.48;100.00;100850.22;5041506;28;20461;-78
2022/04/10 09:35:43;;;;;;;1787.53;999.90;;;;;;;4.31;100.00;100848.22;5045900;28;20048;-81
2022/04/10 09:38:29;;;;;;;;;;;;;;;4.46;100.00;100852.31;5042171;28;20311;-80
2022/04/10 09:41:12;;;;;;;1792.35;999.90;;;;;;;4.87;100.00;100845.13;5057868;28;19940;-80
2022/04/10 09:43:45;;;;;;;1787.10;999.90;;;;;;;4.67;100.00;100845.50;5070323;28;20041;-81
2022/04/10 09:46:18;;;;;;;1746.55;999.90;;;;;;;4.48;100.00;100832.16;5038703;28;20481;-81
2022/04/10 09:48:46;;;;;;;1702.82;999.90;;;;;;;4.41;100.00;100853.03;5045549;28;20053;-81
2022/04/10 09:51:21;;;;;;;1689.75;999.90;;;;;;;4.70;100.00;100850.44;5045087;28;20051;-80
2022/04/10 09:54:02;;;;;;;1700.30;999.90;;;;;;;4.89;100.00;100860.00;5042674;28;20045;-81
2022/04/10 09:56:37;;;;;;;1634.05;999.90;;;;;;;5.13;100.00;100851.06;5046197;28;20056;-82
2022/04/10 09:59:11;;;;;;;1556.95;999.90;;;;;;;5.36;100.00;100853.66;5044435;28;20053;-80
2022/04/10 10:01:44;;;;;;;1428.68;999.90;;;;;;;5.48;100.00;100850.09;5042124;28;20045;-79
2022/04/10 10:04:13;;;;;;;1315.15;999.90;;;;;;;5.69;100.00;100854.81;5074930;28;21572;-81
2022/04/10 10:06:43;;;;;;;1266.32;999.90;;;;;;;5.61;100.00;100844.41;5041995;28;20064;-80
2022/04/10 10:09:17;;;;;;;1203.93;999.90;;;;;;;5.85;100.00;100838.88;5045935;28;20052;-81
2022/04/10 10:11:51;;;;;;;1123.57;999.90;;;;;;;5.92;100.00;100842.22;5045977;28;20044;-80
2022/04/10 10:14:24;;;;;;;305.48;288.67;;;;;;;5.82;100.00;100839.38;5045356;28;20425;-82
2022/04/10 10:16:53;;;;;;;241.63;228.77;;;;;;;5.90;100.00;100847.88;5045195;28;20060;-80
2022/04/10 10:19:26;;;;;;;69.90;66.18;;;;;;;5.88;100.00;100841.91;5049909;28;20375;-80
2022/04/10 10:22:01;;;;;;;22.48;21.17;;;;;;;5.68;100.00;100826.16;5055999;28;20413;-78
2022/04/10 10:24:35;;;;;;;29.42;27.80;;;;;;;5.85;100.00;100844.28;5047958;28;20049;-79
2022/04/10 10:27:50;;;;;;;26.17;24.70;;;;;;;5.69;100.00;100852.13;5034732;28;20056;-80
2022/04/10 10:30:26;;;;;;;20.33;19.13;;;;;;;5.44;100.00;100850.59;5020397;28;20057;-80
2022/04/10 10:33:13;;;;;;;14.45;13.55;;;;;;;5.05;100.00;100868.41;5045690;28;20416;-81
2022/04/10 10:35:51;;;;;;;20.47;19.27;;;;;;;4.93;100.00;100869.28;5074745;28;20064;-80
2022/04/10 10:38:27;;;;;;;25.80;24.30;;;;;;;4.91;100.00;100878.66;5042259;28;20516;-80
2022/04/10 10:41:10;;;;;;;35.28;33.38;;;;;;;5.01;100.00;100859.16;5050202;28;20509;-80
2022/04/10 10:43:43;;;;;;;30.80;29.10;;;;;;;5.33;100.00;100861.41;5047318;28;20520;-80
2022/04/10 10:46:20;;;;;;;29.13;27.52;;;;;;;5.73;100.00;100857.84;5042050;28;20065;-80
2022/04/10 10:49:16;;;;;;;26.45;24.95;;;;;;;5.96;100.00;100859.59;5044234;28;20056;-80
2022/04/10 10:51:51;;;;;;;22.02;20.73;;;;;;;6.00;100.00;100865.34;5023603;28;20063;-79
2022/04/10 10:54:32;;;;;;;11.23;10.52;;;;;;;6.24;100.00;100860.59;5049777;28;20429;-80
2022/04/10 10:57:27;;;;;;;8.98;8.35;;;;;;;6.46;100.00;100856.09;5041852;28;20080;-80
2022/04/10 11:00:10;;;;;;;4.97;4.65;;;;;;;6.34;100.00;100870.75;5042889;28;20048;-80
2022/04/10 11:02:50;;;;;;;3.35;3.15;;;;;;;6.04;100.00;100861.91;5041853;28;20433;-81
2022/04/10 11:05:29;;;;;;;2.50;2.30;;;;;;;5.89;100.00;100853.53;5044232;28;20061;-80
2022/04/10 11:08:05;;;;;;;2.50;2.30;;;;;;;5.85;100.00;100861.28;5046858;28;20041;-80
2022/04/10 11:10:51;;;;;;;2.67;2.47;;;;;;;6.02;100.00;100877.56;5047272;28;20108;-81
2022/04/10 11:13:37;;;;;;;2.70;2.50;;;;;;;6.05;100.00;100868.13;5047058;28;20069;-80
2022/04/10 11:16:12;;;;;;;3.35;3.15;;;;;;;6.64;100.00;100862.28;5048909;28;20049;-80
2022/04/10 11:18:42;;;;;;;2.20;2.10;;;;;;;6.61;100.00;100860.88;5041220;28;20067;-80
2022/04/10 11:21:14;;;;;;;1.80;1.70;;;;;;;6.84;100.00;100863.66;5055042;28;20060;-80